createdAt,value
2019-02-10T00:01:16.935Z,19.10
2019-02-10T00:03:48.258Z,17.40
2019-02-10T00:06:24.462Z,16.35
2019-02-10T00:08:51.456Z,17.17
2019-02-10T00:11:23.328Z,16.12
2019-02-10T00:13:54.181Z,18.55
2019-02-10T00:16:24.952Z,17.07
2019-02-10T00:18:55.618Z,17.20
2019-02-10T00:21:26.380Z,16.20
2019-02-10T00:23:57.168Z,17.87
2019-02-10T00:26:30.445Z,17.02
2019-02-10T00:29:01.955Z,16.87
2019-02-10T00:31:32.680Z,17.15
2019-02-10T00:34:03.900Z,17.40
2019-02-10T00:36:34.954Z,16.48
2019-02-10T00:39:09.790Z,16.10
2019-02-10T00:41:40.583Z,17.25
2019-02-10T00:44:11.668Z,16.45
2019-02-10T00:46:42.583Z,18.27
2019-02-10T00:49:13.682Z,16.17
2019-02-10T00:51:44.310Z,16.23
2019-02-10T00:54:15.232Z,15.18
2019-02-10T00:56:47.174Z,16.17
2019-02-10T00:59:17.846Z,17.37
2019-02-10T01:01:48.529Z,16.40
2019-02-10T01:04:19.179Z,16.65
2019-02-10T01:06:50.089Z,16.85
2019-02-10T01:09:20.710Z,16.23
2019-02-10T01:11:51.392Z,16.05
2019-02-10T01:14:22.398Z,15.45
2019-02-10T01:16:53.060Z,15.53
2019-02-10T01:19:24.819Z,17.67
2019-02-10T01:21:55.464Z,17.42
2019-02-10T01:24:26.094Z,17.45
2019-02-10T01:26:56.825Z,18.23
2019-02-10T01:29:27.569Z,18.07
2019-02-10T01:31:58.979Z,16.77
2019-02-10T01:34:29.588Z,17.60
2019-02-10T01:37:00.561Z,15.60
2019-02-10T01:39:31.365Z,18.62
2019-02-10T01:42:02.695Z,17.45
2019-02-10T01:44:33.617Z,17.70
2019-02-10T01:47:04.398Z,17.75
2019-02-10T01:49:35.315Z,16.87
2019-02-10T01:52:07.379Z,17.20
2019-02-10T01:54:38.009Z,15.70
2019-02-10T01:57:11.352Z,15.72
2019-02-10T01:59:42.277Z,18.12
2019-02-10T02:02:13.187Z,18.15
2019-02-10T02:04:44.268Z,17.48
2019-02-10T02:07:16.333Z,18.05
2019-02-10T02:09:48.100Z,20.20
2019-02-10T02:12:18.876Z,18.48
2019-02-10T02:14:49.639Z,19.57
2019-02-10T02:17:20.323Z,18.32
2019-02-10T02:19:50.839Z,17.20
2019-02-10T02:22:21.461Z,17.35
2019-02-10T02:24:52.242Z,20.02
2019-02-10T02:27:23.559Z,19.67
2019-02-10T02:29:54.299Z,18.95
2019-02-10T02:32:26.397Z,21.15
2019-02-10T02:34:57.086Z,20.62
2019-02-10T02:37:28.409Z,19.80
2019-02-10T02:40:06.075Z,20.72
2019-02-10T02:42:37.038Z,19.40
2019-02-10T02:45:08.997Z,19.32
2019-02-10T02:47:40.351Z,19.45
2019-02-10T02:50:12.309Z,17.67
2019-02-10T02:52:43.322Z,18.95
2019-02-10T02:55:14.096Z,19.80
2019-02-10T02:57:47.622Z,18.60
2019-02-10T03:00:18.314Z,18.67
2019-02-10T03:02:49.424Z,19.70
2019-02-10T03:05:20.486Z,18.50
2019-02-10T03:07:51.037Z,17.73
2019-02-10T03:10:21.589Z,17.75
2019-02-10T03:12:52.958Z,19.42
2019-02-10T03:15:23.714Z,18.70
2019-02-10T03:17:54.730Z,18.07
2019-02-10T03:20:25.440Z,19.32
2019-02-10T03:22:56.507Z,18.55
2019-02-10T03:25:27.903Z,18.75
2019-02-10T03:27:58.739Z,20.72
2019-02-10T03:30:31.099Z,21.50
2019-02-10T03:33:02.259Z,22.20
2019-02-10T03:35:33.327Z,22.27
2019-02-10T03:38:03.958Z,21.15
2019-02-10T03:40:34.846Z,20.50
2019-02-10T03:43:05.919Z,21.17
2019-02-10T03:45:37.065Z,21.00
2019-02-10T03:48:07.604Z,19.05
2019-02-10T03:50:38.495Z,20.60
2019-02-10T03:53:09.217Z,19.67
2019-02-10T03:55:40.047Z,18.62
2019-02-10T03:58:12.492Z,17.40
2019-02-10T04:00:43.368Z,16.57
2019-02-10T04:03:14.071Z,18.42
2019-02-10T04:05:45.529Z,18.07
2019-02-10T04:08:16.335Z,18.98
2019-02-10T04:10:48.549Z,19.92
2019-02-10T04:13:19.283Z,17.75
2019-02-10T04:15:50.141Z,19.92
2019-02-10T04:18:21.180Z,19.20
2019-02-10T04:20:51.619Z,18.75
2019-02-10T04:23:22.461Z,19.48
2019-02-10T04:25:56.469Z,19.30
2019-02-10T04:28:27.421Z,21.42
2019-02-10T04:30:58.364Z,20.23
2019-02-10T04:33:29.125Z,21.68
2019-02-10T04:36:00.216Z,18.80
2019-02-10T04:38:31.276Z,21.55
2019-02-10T04:41:02.441Z,20.20
2019-02-10T04:43:33.429Z,20.48
2019-02-10T04:46:04.324Z,18.27
2019-02-10T04:48:35.373Z,18.73
2019-02-10T04:51:07.914Z,16.37
2019-02-10T04:53:38.845Z,16.60
2019-02-10T04:56:20.030Z,16.15
2019-02-10T04:58:51.888Z,16.00
2019-02-10T05:01:22.521Z,16.62
2019-02-10T05:03:53.614Z,15.65
2019-02-10T05:06:25.124Z,14.68
2019-02-10T05:08:56.292Z,16.40
2019-02-10T05:11:27.315Z,15.75
2019-02-10T05:13:57.967Z,16.35
2019-02-10T05:16:28.792Z,16.07
2019-02-10T05:18:59.716Z,17.75
2019-02-10T05:21:30.767Z,17.73
2019-02-10T05:24:03.580Z,18.20
2019-02-10T05:26:34.223Z,19.80
2019-02-10T05:29:06.179Z,23.12
2019-02-10T05:31:37.160Z,24.10
2019-02-10T05:34:09.342Z,19.45
2019-02-10T05:36:39.935Z,21.52
2019-02-10T05:39:10.537Z,18.98
2019-02-10T05:41:41.291Z,17.92
2019-02-10T05:44:12.031Z,18.40
2019-02-10T05:46:42.584Z,19.20
2019-02-10T05:49:13.248Z,19.15
2019-02-10T05:51:43.917Z,19.55
2019-02-10T05:54:14.522Z,20.30
2019-02-10T05:56:45.509Z,20.43
2019-02-10T05:59:17.624Z,19.37
2019-02-10T06:02:27.682Z,17.55
2019-02-10T06:05:00.651Z,15.60
2019-02-10T06:07:32.865Z,17.52
2019-02-10T06:10:04.074Z,18.17
2019-02-10T06:12:35.382Z,21.50
2019-02-10T06:15:06.746Z,19.50
2019-02-10T06:17:37.761Z,20.40
2019-02-10T06:20:09.077Z,21.03
2019-02-10T06:22:39.889Z,21.17
2019-02-10T06:25:10.902Z,21.57
2019-02-10T06:27:41.637Z,23.15
2019-02-10T06:30:12.789Z,21.05
2019-02-10T06:32:43.338Z,20.88
2019-02-10T06:35:14.408Z,19.32
2019-02-10T06:37:45.664Z,18.27
2019-02-10T06:40:16.605Z,19.20
2019-02-10T06:42:47.797Z,20.57
2019-02-10T06:45:18.419Z,18.80
2019-02-10T06:47:49.595Z,21.25
2019-02-10T06:50:20.206Z,20.43
2019-02-10T06:52:50.827Z,22.22
2019-02-10T06:55:22.982Z,20.25
2019-02-10T06:57:53.463Z,20.27
2019-02-10T07:00:42.444Z,19.73
2019-02-10T07:03:46.156Z,21.07
2019-02-10T07:06:17.110Z,21.57
2019-02-10T07:08:48.316Z,20.68
2019-02-10T07:11:19.421Z,20.62
2019-02-10T07:13:52.720Z,20.02
2019-02-10T07:17:00.379Z,21.45
2019-02-10T07:20:13.588Z,22.95
2019-02-10T07:23:22.028Z,29.48
2019-02-10T07:26:01.469Z,34.50
2019-02-10T07:29:08.665Z,34.20
2019-02-10T07:31:54.059Z,29.87
2019-02-10T07:35:09.746Z,31.07
2019-02-10T07:38:07.801Z,31.17
2019-02-10T07:41:40.674Z,37.17
2019-02-10T07:44:45.880Z,34.48
2019-02-10T07:48:15.654Z,34.25
2019-02-10T07:51:39.337Z,34.23
2019-02-10T07:54:31.028Z,35.37
2019-02-10T07:57:48.407Z,30.73
2019-02-10T08:00:54.827Z,31.87
2019-02-10T08:04:00.622Z,20.57
2019-02-10T08:06:56.816Z,30.17
2019-02-10T08:09:39.206Z,19.80
2019-02-10T08:12:55.933Z,23.77
2019-02-10T08:16:10.948Z,20.83
2019-02-10T08:19:15.880Z,16.67
2019-02-10T08:22:36.291Z,20.60
2019-02-10T08:25:40.717Z,18.30
2019-02-10T08:28:25.115Z,16.13
2019-02-10T08:31:41.167Z,18.20
2019-02-10T08:34:28.209Z,18.50
2019-02-10T08:37:36.675Z,18.43
2019-02-10T08:40:53.648Z,20.27
2019-02-10T08:43:53.553Z,16.40
2019-02-10T08:46:56.115Z,18.30
2019-02-10T08:50:04.000Z,17.40
2019-02-10T08:52:51.773Z,17.17
2019-02-10T08:55:17.799Z,17.13
2019-02-10T08:57:48.525Z,15.10
2019-02-10T09:00:20.219Z,14.93
2019-02-10T09:02:51.657Z,16.23
2019-02-10T09:05:22.427Z,12.30
2019-02-10T09:07:53.157Z,11.90
2019-02-10T09:10:24.074Z,16.10
2019-02-10T09:12:54.978Z,15.90
2019-02-10T09:15:27.484Z,14.40
2019-02-10T09:17:58.119Z,15.37
2019-02-10T09:20:28.929Z,15.90
2019-02-10T09:22:59.897Z,15.90
2019-02-10T09:25:30.798Z,14.97
2019-02-10T09:28:01.805Z,14.27
2019-02-10T09:30:32.752Z,14.37
2019-02-10T09:33:03.767Z,16.43
2019-02-10T09:35:34.608Z,15.50
2019-02-10T09:38:05.552Z,14.30
2019-02-10T09:40:36.486Z,15.97
2019-02-10T09:43:07.515Z,18.30
2019-02-10T09:45:38.296Z,18.80
2019-02-10T09:48:10.031Z,18.83
2019-02-10T09:50:41.080Z,16.13
2019-02-10T09:53:12.401Z,19.07
2019-02-10T09:55:44.117Z,20.13
2019-02-10T09:58:15.219Z,19.60
2019-02-10T10:00:45.942Z,19.50
2019-02-10T10:03:18.108Z,18.83
2019-02-10T10:05:48.775Z,20.57
2019-02-10T10:08:21.184Z,22.53
2019-02-10T10:10:53.366Z,20.37
2019-02-10T10:13:24.089Z,20.40
2019-02-10T10:15:54.752Z,21.10
2019-02-10T10:18:25.404Z,20.67
2019-02-10T10:21:01.511Z,19.87
2019-02-10T10:23:32.426Z,19.70
2019-02-10T10:26:03.432Z,19.83
2019-02-10T10:28:34.684Z,19.33
2019-02-10T10:31:07.308Z,18.13
2019-02-10T10:33:38.076Z,19.53
2019-02-10T10:36:10.689Z,20.27
2019-02-10T10:38:43.155Z,18.00
2019-02-10T10:41:13.894Z,20.87
2019-02-10T10:43:44.850Z,20.47
2019-02-10T10:46:15.975Z,17.90
2019-02-10T10:48:48.395Z,18.77
2019-02-10T10:51:19.195Z,16.80
2019-02-10T10:53:49.774Z,18.47
2019-02-10T10:56:21.651Z,17.53
2019-02-10T10:58:52.760Z,17.97
2019-02-10T11:01:25.289Z,18.10
2019-02-10T11:03:58.486Z,19.80
2019-02-10T11:06:30.094Z,17.23
2019-02-10T11:09:02.090Z,23.40
2019-02-10T11:11:33.758Z,21.90
2019-02-10T11:14:04.865Z,22.67
2019-02-10T11:16:38.668Z,20.90
2019-02-10T11:19:09.860Z,18.23
2019-02-10T11:21:41.007Z,20.07
2019-02-10T11:24:11.693Z,19.13
2019-02-10T11:26:42.792Z,18.80
2019-02-10T11:29:14.784Z,17.63
2019-02-10T11:31:45.473Z,17.50
2019-02-10T11:34:16.542Z,18.93
2019-02-10T11:36:46.840Z,18.83
2019-02-10T11:39:17.762Z,18.33
2019-02-10T11:41:49.926Z,18.17
2019-02-10T11:44:20.846Z,19.20
2019-02-10T11:46:53.642Z,18.17
2019-02-10T11:49:27.899Z,17.60
2019-02-10T11:51:58.959Z,15.43
2019-02-10T11:54:29.773Z,16.00
2019-02-10T11:57:01.206Z,15.97
2019-02-10T11:59:32.542Z,14.90
2019-02-10T12:02:06.241Z,15.60
2019-02-10T12:04:38.192Z,16.93
2019-02-10T12:07:09.911Z,16.40
2019-02-10T12:09:41.481Z,16.37
2019-02-10T12:12:12.830Z,16.90
2019-02-10T12:14:43.895Z,16.80
2019-02-10T12:17:15.166Z,16.73
2019-02-10T12:19:45.804Z,18.20
2019-02-10T12:22:16.961Z,17.83
2019-02-10T12:24:49.833Z,16.93
2019-02-10T12:27:20.982Z,17.43
2019-02-10T12:29:52.322Z,16.50
2019-02-10T12:32:23.724Z,16.50
2019-02-10T12:34:54.167Z,17.60
2019-02-10T12:37:32.193Z,26.83
2019-02-10T12:39:59.837Z,16.80
2019-02-10T12:42:31.729Z,15.60
2019-02-10T12:45:02.977Z,16.83
2019-02-10T12:47:33.349Z,17.10
2019-02-10T12:50:05.056Z,21.20
2019-02-10T12:52:35.370Z,16.60
2019-02-10T12:55:06.215Z,29.03
2019-02-10T12:57:37.055Z,18.67
2019-02-10T13:00:09.846Z,25.03
2019-02-10T13:02:40.470Z,33.13
2019-02-10T13:05:12.846Z,21.30
2019-02-10T13:07:44.411Z,22.30
2019-02-10T13:10:17.410Z,22.10
2019-02-10T13:12:47.885Z,24.43
2019-02-10T13:15:19.679Z,25.47
2019-02-10T13:17:50.992Z,23.10
2019-02-10T13:20:19.102Z,23.50
2019-02-10T13:22:50.750Z,23.37
2019-02-10T13:25:27.639Z,22.30
2019-02-10T13:27:58.767Z,20.00
2019-02-10T13:30:30.483Z,21.97
2019-02-10T13:33:02.168Z,22.40
2019-02-10T13:35:35.644Z,22.30
2019-02-10T13:38:07.952Z,24.50
2019-02-10T13:40:35.999Z,22.87
2019-02-10T13:43:05.238Z,19.93
2019-02-10T13:45:36.859Z,21.50
2019-02-10T13:48:08.147Z,21.07
2019-02-10T13:50:39.339Z,24.50
2019-02-10T13:53:10.597Z,24.70
2019-02-10T13:55:41.292Z,25.07
2019-02-10T13:58:12.127Z,24.60
2019-02-10T14:00:43.229Z,20.27
2019-02-10T14:03:13.805Z,20.77
2019-02-10T14:05:46.144Z,20.73
2019-02-10T14:08:18.226Z,22.87
2019-02-10T14:10:48.598Z,23.87
2019-02-10T14:13:19.453Z,23.97
2019-02-10T14:15:50.775Z,24.87
2019-02-10T14:18:21.708Z,26.57
2019-02-10T14:20:52.842Z,28.13
2019-02-10T14:23:24.085Z,28.37
2019-02-10T14:25:55.056Z,29.70
2019-02-10T14:28:27.405Z,28.90
2019-02-10T14:30:58.385Z,29.27
2019-02-10T14:33:38.531Z,29.60
2019-02-10T14:36:05.288Z,29.80
2019-02-10T14:38:36.546Z,31.40
2019-02-10T14:41:07.896Z,31.87
2019-02-10T14:43:39.412Z,33.17
2019-02-10T14:46:11.406Z,31.80
2019-02-10T14:48:42.386Z,32.87
2019-02-10T14:51:14.132Z,32.87
2019-02-10T14:53:44.866Z,33.60
2019-02-10T14:56:15.876Z,32.77
2019-02-10T14:58:47.175Z,33.40
2019-02-10T15:03:49.010Z,35.30
2019-02-10T15:06:22.854Z,35.43
2019-02-10T15:08:53.580Z,36.10
2019-02-10T15:11:26.361Z,34.37
2019-02-10T15:13:57.881Z,34.50
2019-02-10T15:16:31.164Z,33.30
2019-02-10T15:21:33.681Z,31.90
2019-02-10T15:24:05.412Z,29.60
2019-02-10T15:26:37.936Z,32.80
2019-02-10T15:29:10.073Z,35.20
2019-02-10T15:31:40.695Z,32.95
2019-02-10T15:34:12.047Z,32.57
2019-02-10T15:36:43.166Z,34.20
2019-02-10T15:39:15.983Z,33.28
2019-02-10T15:41:47.201Z,33.38
2019-02-10T15:44:18.474Z,34.77
2019-02-10T15:46:49.582Z,34.83
2019-02-10T15:49:40.379Z,40.05
2019-02-10T15:52:12.619Z,42.93
2019-02-10T15:54:43.783Z,47.40
2019-02-10T15:57:14.977Z,45.48
2019-02-10T15:59:48.026Z,47.08
2019-02-10T16:02:19.303Z,49.15
2019-02-10T16:04:50.252Z,59.20
2019-02-10T16:07:22.548Z,68.87
2019-02-10T16:09:54.255Z,66.25
2019-02-10T16:12:25.935Z,68.62
2019-02-10T16:14:56.577Z,70.17
2019-02-10T16:17:28.003Z,73.25
2019-02-10T16:19:58.896Z,69.10
2019-02-10T16:22:29.757Z,90.05
2019-02-10T16:25:01.577Z,82.22
2019-02-10T16:27:32.133Z,88.78
2019-02-10T16:30:03.513Z,83.52
2019-02-10T16:32:34.566Z,75.80
2019-02-10T16:35:05.353Z,73.00
2019-02-10T16:37:36.055Z,90.87
2019-02-10T16:40:08.057Z,79.42
2019-02-10T16:42:40.584Z,121.90
2019-02-10T16:45:11.849Z,130.25
2019-02-10T16:47:42.631Z,111.75
2019-02-10T16:50:13.937Z,89.80
2019-02-10T16:52:44.810Z,92.35
2019-02-10T16:55:15.803Z,80.10
2019-02-10T16:57:46.482Z,89.07
2019-02-10T17:00:16.972Z,90.55
2019-02-10T17:02:47.660Z,96.82
2019-02-10T17:05:18.519Z,104.92
2019-02-10T17:07:51.822Z,114.50
2019-02-10T17:10:22.554Z,119.30
2019-02-10T17:12:53.309Z,137.20
2019-02-10T17:15:23.997Z,99.62
2019-02-10T17:17:54.758Z,78.60
2019-02-10T17:20:27.333Z,73.92
2019-02-10T17:22:58.311Z,74.55
2019-02-10T17:25:29.857Z,69.00
2019-02-10T17:28:02.053Z,58.65
2019-02-10T17:30:32.769Z,67.53
2019-02-10T17:33:04.383Z,73.50
2019-02-10T17:35:35.134Z,59.93
2019-02-10T17:38:06.403Z,76.30
2019-02-10T17:40:40.162Z,75.97
2019-02-10T17:43:11.713Z,88.25
2019-02-10T17:45:42.572Z,85.05
2019-02-10T17:48:13.309Z,57.48
2019-02-10T17:50:44.080Z,55.65
2019-02-10T17:53:14.755Z,55.15
2019-02-10T17:55:45.636Z,48.23
2019-02-10T17:58:16.387Z,42.45
2019-02-10T18:00:49.073Z,40.65
2019-02-10T18:03:21.278Z,36.83
2019-02-10T18:05:52.101Z,36.10
2019-02-10T18:08:23.722Z,36.63
2019-02-10T18:10:54.859Z,31.82
2019-02-10T18:13:25.751Z,35.80
2019-02-10T18:16:19.550Z,40.85
2019-02-10T18:19:01.994Z,40.30
2019-02-10T18:21:40.767Z,40.20
2019-02-10T18:24:48.785Z,37.80
2019-02-10T18:27:37.541Z,32.98
2019-02-10T18:30:32.346Z,27.73
2019-02-10T18:33:32.495Z,28.23
2019-02-10T18:36:25.006Z,28.12
2019-02-10T18:39:27.264Z,27.65
2019-02-10T18:42:08.314Z,28.10
2019-02-10T18:44:55.482Z,27.20
2019-02-10T18:47:46.185Z,26.75
2019-02-10T18:50:35.259Z,23.62
2019-02-10T18:53:24.754Z,25.60
2019-02-10T18:56:06.519Z,23.67
2019-02-10T18:58:56.001Z,23.65
2019-02-10T19:01:38.601Z,22.98
2019-02-10T19:04:40.808Z,22.52
2019-02-10T19:07:31.622Z,25.72
2019-02-10T19:10:20.962Z,26.87
2019-02-10T19:13:07.568Z,23.50
2019-02-10T19:15:55.639Z,27.17
2019-02-10T19:18:41.388Z,27.85
2019-02-10T19:21:39.990Z,24.72
2019-02-10T19:24:49.003Z,25.32
2019-02-10T19:27:27.901Z,28.27
2019-02-10T19:30:17.107Z,28.85
2019-02-10T19:33:06.594Z,29.27
2019-02-10T19:35:55.751Z,25.20
2019-02-10T19:38:41.446Z,25.45
2019-02-10T19:41:22.313Z,26.17
2019-02-10T19:44:10.858Z,25.55
2019-02-10T19:46:59.099Z,26.12
2019-02-10T19:49:46.849Z,26.75
2019-02-10T19:52:35.506Z,28.95
2019-02-10T19:55:24.070Z,29.80
2019-02-10T19:58:29.513Z,23.30
2019-02-10T20:01:17.726Z,30.92
2019-02-10T20:04:26.862Z,28.65
2019-02-10T20:07:23.521Z,27.58
2019-02-10T20:10:04.228Z,28.92
2019-02-10T20:12:46.502Z,24.60
2019-02-10T20:15:23.016Z,24.63
2019-02-10T20:18:12.644Z,26.07
2019-02-10T20:21:08.577Z,23.90
2019-02-10T20:24:11.477Z,26.57
2019-02-10T20:27:06.872Z,23.90
2019-02-10T20:29:48.479Z,24.82
2019-02-10T20:32:42.861Z,27.30
2019-02-10T20:35:41.141Z,25.45
2019-02-10T20:38:39.618Z,25.92
2019-02-10T20:41:37.910Z,25.52
2019-02-10T20:44:28.399Z,25.30
2019-02-10T20:47:27.114Z,26.10
2019-02-10T20:50:28.758Z,22.93
2019-02-10T20:53:18.309Z,24.30
2019-02-10T20:56:02.055Z,25.90
2019-02-10T20:58:44.350Z,24.75
2019-02-10T21:01:30.791Z,28.70
2019-02-10T21:04:08.660Z,24.65
2019-02-10T21:06:55.170Z,27.15
2019-02-10T21:09:54.159Z,24.23
2019-02-10T21:12:43.264Z,26.82
2019-02-10T21:15:48.726Z,25.72
2019-02-10T21:18:37.630Z,28.15
2019-02-10T21:21:27.529Z,27.25
2019-02-10T21:24:10.864Z,28.98
2019-02-10T21:26:59.603Z,27.73
2019-02-10T21:32:34.149Z,28.35
2019-02-10T21:35:23.724Z,29.27
2019-02-10T21:38:19.049Z,29.50
2019-02-10T21:41:08.510Z,26.62
2019-02-10T21:44:01.377Z,30.68
2019-02-10T21:46:59.139Z,29.92
2019-02-10T21:49:32.214Z,25.48
2019-02-10T21:52:04.882Z,31.27
2019-02-10T21:54:35.865Z,32.85
2019-02-10T21:57:06.422Z,27.20
2019-02-10T21:59:37.059Z,32.00
2019-02-10T22:02:07.716Z,32.65
2019-02-10T22:04:38.842Z,33.25
2019-02-10T22:07:09.469Z,29.23
2019-02-10T22:09:41.244Z,31.27
2019-02-10T22:12:12.432Z,29.35
2019-02-10T22:14:43.127Z,30.92
2019-02-10T22:17:13.816Z,26.52
2019-02-10T22:19:44.659Z,30.52
2019-02-10T22:22:15.639Z,28.77
2019-02-10T22:24:46.263Z,27.02
2019-02-10T22:27:16.868Z,27.07
2019-02-10T22:29:47.469Z,29.25
2019-02-10T22:32:19.655Z,29.52
2019-02-10T22:34:50.524Z,26.97
2019-02-10T22:37:21.171Z,28.47
2019-02-10T22:39:51.782Z,26.30
2019-02-10T22:42:22.618Z,28.95
2019-02-10T22:44:53.237Z,30.37
2019-02-10T22:47:23.908Z,30.50
2019-02-10T22:49:54.560Z,31.80
2019-02-10T22:52:27.976Z,32.65
2019-02-10T22:54:58.678Z,55.98
2019-02-10T22:57:29.629Z,44.45
2019-02-10T23:00:01.326Z,46.25
2019-02-10T23:02:32.479Z,51.83
2019-02-10T23:05:05.543Z,47.95
2019-02-10T23:07:36.355Z,52.60
2019-02-10T23:10:07.235Z,41.88
2019-02-10T23:12:38.039Z,39.27
2019-02-10T23:15:10.245Z,39.10
2019-02-10T23:17:40.829Z,36.88
2019-02-10T23:20:11.750Z,33.00
2019-02-10T23:22:42.381Z,34.38
2019-02-10T23:25:12.933Z,32.53
2019-02-10T23:27:43.480Z,31.12
2019-02-10T23:30:14.440Z,33.90
2019-02-10T23:32:45.108Z,30.12
2019-02-10T23:35:15.916Z,29.75
2019-02-10T23:37:46.875Z,30.25
2019-02-10T23:40:17.606Z,26.45
2019-02-10T23:42:48.249Z,27.07
2019-02-10T23:45:18.807Z,24.25
2019-02-10T23:47:49.555Z,24.47
2019-02-10T23:50:20.878Z,25.32
2019-02-10T23:52:51.706Z,26.33
2019-02-10T23:55:22.268Z,24.98
2019-02-10T23:57:52.920Z,24.43
